createdAt,value
2022-12-28T00:00:10.768Z,3.49
2022-12-28T00:01:10.703Z,3.46
2022-12-28T00:02:10.812Z,3.49
2022-12-28T00:03:10.699Z,3.54
2022-12-28T00:04:10.783Z,3.46
2022-12-28T00:05:10.695Z,3.33
2022-12-28T00:06:10.670Z,3.35
2022-12-28T00:07:10.665Z,3.26
2022-12-28T00:08:10.617Z,3.23
2022-12-28T00:09:10.768Z,3.11
2022-12-28T00:10:10.681Z,3.09
2022-12-28T00:11:18.687Z,3.26
2022-12-28T00:12:11.643Z,3.18
2022-12-28T00:13:10.613Z,2.99
2022-12-28T00:14:10.611Z,3.07
2022-12-28T00:15:10.662Z,2.94
2022-12-28T00:16:10.670Z,2.94
2022-12-28T00:17:10.589Z,2.93
2022-12-28T00:18:10.586Z,2.91
2022-12-28T00:19:10.622Z,2.91
2022-12-28T00:20:10.674Z,3.02
2022-12-28T00:21:10.580Z,2.81
2022-12-28T00:22:10.593Z,2.89
2022-12-28T00:23:10.612Z,2.84
2022-12-28T00:24:10.580Z,2.94
2022-12-28T00:25:10.572Z,2.94
2022-12-28T00:26:10.601Z,2.86
2022-12-28T00:27:10.566Z,2.87
2022-12-28T00:28:10.564Z,2.89
2022-12-28T00:29:10.557Z,2.99
2022-12-28T00:30:10.522Z,2.97
2022-12-28T00:31:10.666Z,3.05
2022-12-28T00:32:10.527Z,2.93
2022-12-28T00:33:10.511Z,2.79
2022-12-28T00:34:10.501Z,2.71
2022-12-28T00:35:10.518Z,2.71
2022-12-28T00:36:10.485Z,2.78
2022-12-28T00:37:13.171Z,2.75
2022-12-28T00:38:11.483Z,2.79
2022-12-28T00:39:10.505Z,2.72
2022-12-28T00:40:10.487Z,2.87
2022-12-28T00:41:10.466Z,2.82
2022-12-28T00:42:10.613Z,2.71
2022-12-28T00:43:10.456Z,2.72
2022-12-28T00:44:10.496Z,2.87
2022-12-28T00:45:10.489Z,2.73
2022-12-28T00:46:10.528Z,2.84
2022-12-28T00:47:10.463Z,2.81
2022-12-28T00:48:10.493Z,2.68
2022-12-28T00:49:10.453Z,2.76
2022-12-28T00:50:10.459Z,2.81
2022-12-28T00:51:10.408Z,2.81
2022-12-28T00:52:10.472Z,2.89
2022-12-28T00:53:10.401Z,2.75
2022-12-28T00:54:10.385Z,2.68
2022-12-28T00:55:10.424Z,2.65
2022-12-28T00:56:10.429Z,2.79
2022-12-28T00:57:10.403Z,2.75
2022-12-28T00:58:10.372Z,2.72
2022-12-28T00:59:10.555Z,2.61
2022-12-28T01:00:10.417Z,2.63
2022-12-28T01:01:10.456Z,2.55
2022-12-28T01:02:10.428Z,2.61
2022-12-28T01:03:10.356Z,2.66
2022-12-28T01:04:10.401Z,2.58
2022-12-28T01:05:10.325Z,2.61
2022-12-28T01:06:10.340Z,2.57
2022-12-28T01:07:10.366Z,2.65
2022-12-28T01:08:10.339Z,2.69
2022-12-28T01:09:10.347Z,2.75
2022-12-28T01:10:10.346Z,2.69
2022-12-28T01:11:10.328Z,2.75
2022-12-28T01:12:10.347Z,2.76
2022-12-28T01:13:10.313Z,2.79
2022-12-28T01:14:10.315Z,2.72
2022-12-28T01:15:10.344Z,2.76
2022-12-28T01:16:10.322Z,2.63
2022-12-28T01:17:10.329Z,2.78
2022-12-28T01:18:10.275Z,2.81
2022-12-28T01:19:10.299Z,2.90
2022-12-28T01:20:10.309Z,2.90
2022-12-28T01:21:10.410Z,2.91
2022-12-28T01:22:10.275Z,2.89
2022-12-28T01:23:10.256Z,2.99
2022-12-28T01:24:10.270Z,3.05
2022-12-28T01:25:10.265Z,2.94
2022-12-28T01:26:10.263Z,3.04
2022-12-28T01:27:10.247Z,3.02
2022-12-28T01:28:10.220Z,2.96
2022-12-28T01:29:10.272Z,2.94
2022-12-28T01:30:10.223Z,3.07
2022-12-28T01:31:10.246Z,3.02
2022-12-28T01:32:10.315Z,3.14
2022-12-28T01:33:10.251Z,2.99
2022-12-28T01:34:10.202Z,3.08
2022-12-28T01:35:10.177Z,3.11
2022-12-28T01:36:10.216Z,3.12
2022-12-28T01:37:10.315Z,3.07
2022-12-28T01:38:10.164Z,3.04
2022-12-28T01:39:10.275Z,3.07
2022-12-28T01:40:10.192Z,3.04
2022-12-28T01:41:10.146Z,2.97
2022-12-28T01:42:10.181Z,3.20
2022-12-28T01:43:10.784Z,3.00
2022-12-28T01:44:10.173Z,3.08
2022-12-28T01:45:10.134Z,3.05
2022-12-28T01:46:10.124Z,3.27
2022-12-28T01:47:10.121Z,3.26
2022-12-28T01:48:11.168Z,3.25
2022-12-28T01:49:10.160Z,3.15
2022-12-28T01:50:10.099Z,3.20
2022-12-28T01:51:10.121Z,3.20
2022-12-28T01:52:10.111Z,3.35
2022-12-28T01:53:10.115Z,3.33
2022-12-28T01:54:10.119Z,3.36
2022-12-28T01:55:10.085Z,3.26
2022-12-28T01:56:10.702Z,3.41
2022-12-28T01:57:10.071Z,3.33
2022-12-28T01:58:10.087Z,3.36
2022-12-28T01:59:10.192Z,3.36
2022-12-28T02:00:10.061Z,3.52
2022-12-28T02:01:10.805Z,3.44
2022-12-28T02:02:10.197Z,3.36
2022-12-28T02:03:10.053Z,3.42
2022-12-28T02:04:11.072Z,3.37
2022-12-28T02:05:10.006Z,3.59
2022-12-28T02:06:10.098Z,3.66
2022-12-28T02:07:10.016Z,3.64
2022-12-28T02:08:09.969Z,3.59
2022-12-28T02:09:10.037Z,3.67
2022-12-28T02:10:44.412Z,3.63
2022-12-28T02:11:10.996Z,3.62
2022-12-28T02:12:09.958Z,3.72
2022-12-28T02:13:10.021Z,3.66
2022-12-28T02:14:09.986Z,3.82
2022-12-28T02:15:10.031Z,3.64
2022-12-28T02:16:09.975Z,3.69
2022-12-28T02:17:10.019Z,3.66
2022-12-28T02:18:09.931Z,3.81
2022-12-28T02:19:09.975Z,3.82
2022-12-28T02:20:11.048Z,3.78
2022-12-28T02:21:10.032Z,3.91
2022-12-28T02:22:09.949Z,4.00
2022-12-28T02:23:09.948Z,3.85
2022-12-28T02:24:09.974Z,3.92
2022-12-28T02:25:12.646Z,3.96
2022-12-28T02:26:09.923Z,4.05
2022-12-28T02:27:09.907Z,3.94
2022-12-28T02:28:09.883Z,4.00
2022-12-28T02:29:09.938Z,4.05
2022-12-28T02:30:09.912Z,4.09
2022-12-28T02:31:09.915Z,4.16
2022-12-28T02:32:09.903Z,4.06
2022-12-28T02:33:09.893Z,4.26
2022-12-28T02:34:09.859Z,4.27
2022-12-28T02:35:09.977Z,4.35
2022-12-28T02:36:16.155Z,4.36
2022-12-28T02:37:11.013Z,4.30
2022-12-28T02:38:09.835Z,4.35
2022-12-28T02:39:09.898Z,4.34
2022-12-28T02:40:09.990Z,4.31
2022-12-28T02:41:09.835Z,4.20
2022-12-28T02:42:09.854Z,4.30
2022-12-28T02:43:09.828Z,4.41
2022-12-28T02:44:09.833Z,4.28
2022-12-28T02:45:09.833Z,4.39
2022-12-28T02:46:10.663Z,4.43
2022-12-28T02:47:09.766Z,4.49
2022-12-28T02:48:09.795Z,4.45
2022-12-28T02:49:09.806Z,4.57
2022-12-28T02:50:09.812Z,4.53
2022-12-28T02:51:09.769Z,4.57
2022-12-28T02:52:09.781Z,4.51
2022-12-28T02:53:09.787Z,4.57
2022-12-28T02:54:09.783Z,4.57
2022-12-28T02:55:09.783Z,4.63
2022-12-28T02:56:09.797Z,4.66
2022-12-28T02:57:09.767Z,4.75
2022-12-28T02:58:09.717Z,4.89
2022-12-28T02:59:09.741Z,4.77
2022-12-28T03:00:09.762Z,4.79
2022-12-28T03:01:09.890Z,4.88
2022-12-28T03:02:09.818Z,4.88
2022-12-28T03:03:09.786Z,4.93
2022-12-28T03:04:09.738Z,4.97
2022-12-28T03:05:09.734Z,4.96
2022-12-28T03:06:09.676Z,5.06
2022-12-28T03:07:09.707Z,5.07
2022-12-28T03:08:09.684Z,5.04
2022-12-28T03:09:09.687Z,5.22
2022-12-28T03:10:09.662Z,5.16
2022-12-28T03:11:09.667Z,5.15
2022-12-28T03:12:09.625Z,5.16
2022-12-28T03:13:10.632Z,5.09
2022-12-28T03:14:09.672Z,5.12
2022-12-28T03:15:09.648Z,5.18
2022-12-28T03:16:09.650Z,5.25
2022-12-28T03:17:09.607Z,5.15
2022-12-28T03:18:09.645Z,5.22
2022-12-28T03:19:09.617Z,5.19
2022-12-28T03:20:09.646Z,5.32
2022-12-28T03:21:09.625Z,5.29
2022-12-28T03:22:09.610Z,5.37
2022-12-28T03:23:09.584Z,5.37
2022-12-28T03:24:09.664Z,5.44
2022-12-28T03:25:09.598Z,5.41
2022-12-28T03:26:09.530Z,5.51
2022-12-28T03:27:09.553Z,5.50
2022-12-28T03:28:09.634Z,5.55
2022-12-28T03:29:09.551Z,5.48
2022-12-28T03:30:09.575Z,5.37
2022-12-28T03:31:09.566Z,5.51
2022-12-28T03:32:09.533Z,5.50
2022-12-28T03:33:09.534Z,5.43
2022-12-28T03:34:09.544Z,5.57
2022-12-28T03:35:09.515Z,5.58
2022-12-28T03:36:09.535Z,5.54
2022-12-28T03:37:09.511Z,5.44
2022-12-28T03:38:09.482Z,5.47
2022-12-28T03:39:09.522Z,5.52
2022-12-28T03:40:09.535Z,5.57
2022-12-28T03:41:09.487Z,5.66
2022-12-28T03:42:09.450Z,5.62
2022-12-28T03:43:09.424Z,5.61
2022-12-28T03:44:09.437Z,5.58
2022-12-28T03:45:09.472Z,5.62
2022-12-28T03:46:09.511Z,5.69
2022-12-28T03:47:09.418Z,5.58
2022-12-28T03:48:09.420Z,5.69
2022-12-28T03:49:09.455Z,5.65
2022-12-28T03:50:09.436Z,5.62
2022-12-28T03:51:09.450Z,5.66
2022-12-28T03:52:09.389Z,5.66
2022-12-28T03:53:09.375Z,5.69
2022-12-28T03:54:09.424Z,5.67
2022-12-28T03:55:09.433Z,5.66
2022-12-28T03:56:09.364Z,5.66
2022-12-28T03:57:09.413Z,5.75
2022-12-28T03:58:09.398Z,5.76
2022-12-28T03:59:09.379Z,5.84
2022-12-28T04:00:09.359Z,5.73
2022-12-28T04:01:09.439Z,5.76
2022-12-28T04:02:09.421Z,5.79
2022-12-28T04:03:09.374Z,5.73
2022-12-28T04:04:09.345Z,5.79
2022-12-28T04:05:09.352Z,5.87
2022-12-28T04:06:09.300Z,5.85
2022-12-28T04:07:09.318Z,5.84
2022-12-28T04:08:09.304Z,5.80
2022-12-28T04:09:09.277Z,5.80
2022-12-28T04:10:09.307Z,5.76
2022-12-28T04:11:09.328Z,5.82
2022-12-28T04:12:09.255Z,5.79
2022-12-28T04:13:09.299Z,5.87
2022-12-28T04:14:11.166Z,5.91
2022-12-28T04:15:09.252Z,5.88
2022-12-28T04:16:09.342Z,5.87
2022-12-28T04:17:09.248Z,5.88
2022-12-28T04:18:09.231Z,5.87
2022-12-28T04:19:09.194Z,5.88
2022-12-28T04:20:09.219Z,5.91
2022-12-28T04:21:09.232Z,5.82
2022-12-28T04:22:09.219Z,5.87
2022-12-28T04:23:09.204Z,5.80
2022-12-28T04:24:09.208Z,5.85
2022-12-28T04:25:09.183Z,5.88
2022-12-28T04:26:09.159Z,5.88
2022-12-28T04:27:09.212Z,5.90
2022-12-28T04:28:09.158Z,5.80
2022-12-28T04:29:09.180Z,5.79
2022-12-28T04:30:09.153Z,5.91
2022-12-28T04:31:09.144Z,5.87
2022-12-28T04:32:09.143Z,5.95
2022-12-28T04:33:09.338Z,5.88
2022-12-28T04:34:09.096Z,5.84
2022-12-28T04:35:09.137Z,5.84
2022-12-28T04:36:09.098Z,5.79
2022-12-28T04:37:09.107Z,5.75
2022-12-28T04:38:09.095Z,5.76
2022-12-28T04:39:09.089Z,5.69
2022-12-28T04:40:09.095Z,5.69
2022-12-28T04:41:09.076Z,5.73
2022-12-28T04:42:09.073Z,5.77
2022-12-28T04:43:09.090Z,5.82
2022-12-28T04:44:09.108Z,5.76
2022-12-28T04:45:09.052Z,5.80
2022-12-28T04:46:09.093Z,5.79
2022-12-28T04:47:09.014Z,5.87
2022-12-28T04:48:10.023Z,5.87
2022-12-28T04:49:09.104Z,5.88
2022-12-28T04:50:09.010Z,5.90
2022-12-28T04:51:09.003Z,5.85
2022-12-28T04:52:09.008Z,5.80
2022-12-28T04:53:09.004Z,5.73
2022-12-28T04:54:08.983Z,5.79
2022-12-28T04:55:09.015Z,5.77
2022-12-28T04:56:09.994Z,5.80
2022-12-28T04:57:08.982Z,5.72
2022-12-28T04:58:08.960Z,5.76
2022-12-28T04:59:08.945Z,5.80
2022-12-28T05:00:08.965Z,5.75
2022-12-28T05:01:09.102Z,5.76
2022-12-28T05:02:09.174Z,5.84
2022-12-28T05:03:08.925Z,5.85
2022-12-28T05:04:08.941Z,5.79
2022-12-28T05:05:08.911Z,5.87
2022-12-28T05:06:08.952Z,5.80
2022-12-28T05:07:08.926Z,5.93
2022-12-28T05:08:08.906Z,5.84
2022-12-28T05:09:08.898Z,5.94
2022-12-28T05:10:08.892Z,5.97
2022-12-28T05:11:08.924Z,5.95
2022-12-28T05:12:08.862Z,5.97
2022-12-28T05:13:08.866Z,5.94
2022-12-28T05:14:08.883Z,5.90
2022-12-28T05:15:08.919Z,5.87
2022-12-28T05:16:08.892Z,5.94
2022-12-28T05:17:08.879Z,5.93
2022-12-28T05:18:08.852Z,5.95
2022-12-28T05:19:08.866Z,5.85
2022-12-28T05:20:08.858Z,5.97
2022-12-28T05:21:08.828Z,5.94
2022-12-28T05:22:08.861Z,6.00
2022-12-28T05:23:08.783Z,6.05
2022-12-28T05:24:08.802Z,5.94
2022-12-28T05:25:08.868Z,6.02
2022-12-28T05:26:08.795Z,5.98
2022-12-28T05:27:08.802Z,5.93
2022-12-28T05:28:08.783Z,6.02
2022-12-28T05:29:08.753Z,5.97
2022-12-28T05:30:08.796Z,6.02
2022-12-28T05:31:08.842Z,6.02
2022-12-28T05:32:08.790Z,6.09
2022-12-28T05:33:08.729Z,6.03
2022-12-28T05:34:08.707Z,6.08
2022-12-28T05:35:08.754Z,6.03
2022-12-28T05:36:08.711Z,6.02
2022-12-28T05:37:08.739Z,6.08
2022-12-28T05:38:08.706Z,6.06
2022-12-28T05:39:08.768Z,6.11
2022-12-28T05:40:08.696Z,6.18
2022-12-28T05:41:08.683Z,6.18
2022-12-28T05:42:08.708Z,6.19
2022-12-28T05:43:08.707Z,6.11
2022-12-28T05:44:08.700Z,6.09
2022-12-28T05:45:08.714Z,6.12
2022-12-28T05:46:08.698Z,6.16
2022-12-28T05:47:08.680Z,6.18
2022-12-28T05:48:08.674Z,6.27
2022-12-28T05:49:08.658Z,6.13
2022-12-28T05:50:08.670Z,5.97
2022-12-28T05:51:08.630Z,5.95
2022-12-28T05:52:08.598Z,6.08
2022-12-28T05:53:08.609Z,6.13
2022-12-28T05:54:08.624Z,6.12
2022-12-28T05:55:08.753Z,6.12
2022-12-28T05:56:13.870Z,6.05
2022-12-28T05:57:10.645Z,6.19
2022-12-28T05:58:08.577Z,6.31
2022-12-28T05:59:08.603Z,6.28
2022-12-28T06:00:08.593Z,6.28
2022-12-28T06:01:08.721Z,6.28
2022-12-28T06:02:08.757Z,6.24
2022-12-28T06:03:08.826Z,6.37
2022-12-28T06:04:08.562Z,6.30
2022-12-28T06:05:08.574Z,6.30
2022-12-28T06:06:08.575Z,6.47
2022-12-28T06:07:08.514Z,6.37
2022-12-28T06:08:08.500Z,6.47
2022-12-28T06:09:08.493Z,6.38
2022-12-28T06:10:08.570Z,6.32
2022-12-28T06:11:08.618Z,6.37
2022-12-28T06:12:08.504Z,6.34
2022-12-28T06:13:09.479Z,6.43
2022-12-28T06:14:08.498Z,6.47
2022-12-28T06:15:08.475Z,6.43
2022-12-28T06:16:08.536Z,6.43
2022-12-28T06:17:08.508Z,6.40
2022-12-28T06:18:08.452Z,6.34
2022-12-28T06:19:08.475Z,6.45
2022-12-28T06:20:08.437Z,6.49
2022-12-28T06:21:08.432Z,6.53
2022-12-28T06:22:08.411Z,6.55
2022-12-28T06:23:08.648Z,6.70
2022-12-28T06:24:08.420Z,6.60
2022-12-28T06:25:08.422Z,6.64
2022-12-28T06:26:08.406Z,6.61
2022-12-28T06:27:08.393Z,6.60
2022-12-28T06:28:08.420Z,6.60
2022-12-28T06:29:08.395Z,6.45
2022-12-28T06:30:08.356Z,6.70
2022-12-28T06:31:08.381Z,6.63
2022-12-28T06:32:08.426Z,6.57
2022-12-28T06:33:08.342Z,6.63
2022-12-28T06:34:08.405Z,6.71
2022-12-28T06:35:08.310Z,6.65
2022-12-28T06:36:12.330Z,6.65
2022-12-28T06:37:09.317Z,6.64
2022-12-28T06:38:08.312Z,6.64
2022-12-28T06:39:08.421Z,6.78
2022-12-28T06:40:08.309Z,6.79
2022-12-28T06:41:15.564Z,6.64
2022-12-28T06:42:10.306Z,6.64
2022-12-28T06:43:08.297Z,6.70
2022-12-28T06:44:08.302Z,6.64
2022-12-28T06:45:08.321Z,6.73
2022-12-28T06:46:08.260Z,6.65
2022-12-28T06:47:08.257Z,6.74
2022-12-28T06:48:08.268Z,6.67
2022-12-28T06:49:08.231Z,6.56
2022-12-28T06:50:08.253Z,6.64
2022-12-28T06:51:08.270Z,6.68
2022-12-28T06:52:08.196Z,6.73
2022-12-28T06:53:08.188Z,6.78
2022-12-28T06:54:08.201Z,6.73
2022-12-28T06:55:08.190Z,6.70
2022-12-28T06:56:08.198Z,6.67
2022-12-28T06:57:08.166Z,6.71
2022-12-28T06:58:08.194Z,6.61
2022-12-28T06:59:08.183Z,6.64
2022-12-28T07:00:08.141Z,6.78
2022-12-28T07:01:08.324Z,6.64
2022-12-28T07:02:08.295Z,6.71
2022-12-28T07:03:08.166Z,6.65
2022-12-28T07:04:08.153Z,6.70
2022-12-28T07:05:08.094Z,6.73
2022-12-28T07:06:08.119Z,6.78
2022-12-28T07:07:08.143Z,6.86
2022-12-28T07:08:12.568Z,6.81
2022-12-28T07:09:08.065Z,6.89
2022-12-28T07:10:08.098Z,6.83
2022-12-28T07:11:08.088Z,6.92
2022-12-28T07:12:08.119Z,6.92
2022-12-28T07:13:08.090Z,6.92
2022-12-28T07:14:08.044Z,6.96
2022-12-28T07:15:08.066Z,6.96
2022-12-28T07:16:08.046Z,6.92
2022-12-28T07:17:08.035Z,6.99
2022-12-28T07:18:08.161Z,7.01
2022-12-28T07:19:08.064Z,6.97
2022-12-28T07:20:08.037Z,6.99
2022-12-28T07:21:08.025Z,7.10
2022-12-28T07:22:08.012Z,7.10
2022-12-28T07:23:08.022Z,7.00
2022-12-28T07:24:08.038Z,6.89
2022-12-28T07:25:08.007Z,6.96
2022-12-28T07:26:08.019Z,6.93
2022-12-28T07:27:07.991Z,6.97
2022-12-28T07:28:07.958Z,6.97
2022-12-28T07:29:08.052Z,6.99
2022-12-28T07:30:07.965Z,7.04
2022-12-28T07:31:08.004Z,6.93
2022-12-28T07:32:07.946Z,7.06
2022-12-28T07:33:07.961Z,6.97
2022-12-28T07:34:07.941Z,7.07
2022-12-28T07:35:07.931Z,7.06
2022-12-28T07:36:07.887Z,7.18
2022-12-28T07:37:07.900Z,7.03
2022-12-28T07:38:07.879Z,7.16
2022-12-28T07:39:07.909Z,7.16
2022-12-28T07:40:07.917Z,7.22
2022-12-28T07:41:07.877Z,7.24
2022-12-28T07:42:07.875Z,7.22
2022-12-28T07:43:07.851Z,7.19
2022-12-28T07:44:07.865Z,7.21
2022-12-28T07:45:09.752Z,7.22
2022-12-28T07:46:07.894Z,7.29
2022-12-28T07:47:07.857Z,7.33
2022-12-28T07:48:07.828Z,7.21
2022-12-28T07:49:07.799Z,7.25
2022-12-28T07:50:07.835Z,7.26
2022-12-28T07:51:07.938Z,7.31
2022-12-28T07:52:07.824Z,7.25
2022-12-28T07:53:07.807Z,7.34
2022-12-28T07:54:07.793Z,7.31
2022-12-28T07:55:07.841Z,7.26
2022-12-28T07:56:07.800Z,7.47
2022-12-28T07:57:07.780Z,7.54
2022-12-28T07:58:07.780Z,7.44
2022-12-28T07:59:07.775Z,7.52
2022-12-28T08:00:07.727Z,7.54
2022-12-28T08:01:07.865Z,7.64
2022-12-28T08:02:07.975Z,7.54
2022-12-28T08:03:07.760Z,7.57
2022-12-28T08:04:07.731Z,7.55
2022-12-28T08:05:07.790Z,7.58
2022-12-28T08:06:07.711Z,7.64
2022-12-28T08:07:07.734Z,7.62
2022-12-28T08:08:07.685Z,7.66
2022-12-28T08:09:07.693Z,7.77
2022-12-28T08:10:07.703Z,7.66
2022-12-28T08:11:07.695Z,7.73
2022-12-28T08:12:07.674Z,7.73
2022-12-28T08:13:07.684Z,7.62
2022-12-28T08:14:07.681Z,7.52
2022-12-28T08:15:07.701Z,7.73
2022-12-28T08:16:07.627Z,7.80
2022-12-28T08:17:07.599Z,7.58
2022-12-28T08:18:07.661Z,7.73
2022-12-28T08:19:07.636Z,7.80
2022-12-28T08:20:07.604Z,7.78
2022-12-28T08:21:07.610Z,7.81
2022-12-28T08:22:07.604Z,7.83
2022-12-28T08:23:07.582Z,7.83
2022-12-28T08:24:07.630Z,7.81
2022-12-28T08:25:07.625Z,7.80
2022-12-28T08:26:07.560Z,7.86
2022-12-28T08:27:07.610Z,7.81
2022-12-28T08:28:07.553Z,7.86
2022-12-28T08:29:07.600Z,7.94
2022-12-28T08:30:07.564Z,7.87
2022-12-28T08:31:07.591Z,7.95
2022-12-28T08:32:07.571Z,8.02
2022-12-28T08:33:07.537Z,7.99
2022-12-28T08:34:07.541Z,7.86
2022-12-28T08:35:07.611Z,7.98
2022-12-28T08:36:07.529Z,8.01
2022-12-28T08:37:07.521Z,8.04
2022-12-28T08:38:07.489Z,8.04
2022-12-28T08:39:07.555Z,8.02
2022-12-28T08:40:07.475Z,8.04
2022-12-28T08:41:07.490Z,8.04
2022-12-28T08:42:07.486Z,8.12
2022-12-28T08:43:07.451Z,7.99
2022-12-28T08:44:07.469Z,8.06
2022-12-28T08:45:07.435Z,8.16
2022-12-28T08:46:07.584Z,8.14
2022-12-28T08:47:07.464Z,8.10
2022-12-28T08:48:07.412Z,8.13
2022-12-28T08:49:07.420Z,8.21
2022-12-28T08:50:07.768Z,8.14
2022-12-28T08:51:07.537Z,8.31
2022-12-28T08:52:07.406Z,8.17
2022-12-28T08:53:07.380Z,8.19
2022-12-28T08:54:07.363Z,8.17
2022-12-28T08:55:07.375Z,8.24
2022-12-28T08:56:07.416Z,8.26
2022-12-28T08:57:07.532Z,8.26
2022-12-28T08:58:07.392Z,8.32
2022-12-28T08:59:07.385Z,8.35
2022-12-28T09:00:07.377Z,8.19
2022-12-28T09:01:07.464Z,8.31
2022-12-28T09:02:07.430Z,8.21
2022-12-28T09:03:07.434Z,8.28
2022-12-28T09:04:07.297Z,8.28
2022-12-28T09:05:07.323Z,8.34
2022-12-28T09:06:07.286Z,8.35
2022-12-28T09:07:07.298Z,8.34
2022-12-28T09:08:07.318Z,8.24
2022-12-28T09:09:07.548Z,8.21
2022-12-28T09:10:07.343Z,8.37
2022-12-28T09:11:07.236Z,8.35
2022-12-28T09:12:07.259Z,8.41
2022-12-28T09:13:07.285Z,8.46
2022-12-28T09:14:07.268Z,8.35
2022-12-28T09:15:07.265Z,8.37
2022-12-28T09:16:07.251Z,8.47
2022-12-28T09:17:07.235Z,8.34
2022-12-28T09:18:07.201Z,8.31
2022-12-28T09:19:07.224Z,8.38
2022-12-28T09:20:07.192Z,8.44
2022-12-28T09:21:07.215Z,8.41
2022-12-28T09:22:07.198Z,8.31
2022-12-28T09:23:07.201Z,8.39
2022-12-28T09:24:07.256Z,8.37
2022-12-28T09:25:07.183Z,8.52
2022-12-28T09:26:08.150Z,8.57
2022-12-28T09:27:07.125Z,8.67
2022-12-28T09:28:07.164Z,8.59
2022-12-28T09:29:07.173Z,8.49
2022-12-28T09:30:07.258Z,8.60
2022-12-28T09:31:07.173Z,8.38
2022-12-28T09:32:07.149Z,8.37
2022-12-28T09:33:07.129Z,8.41
2022-12-28T09:35:09.146Z,8.31
2022-12-28T09:36:07.096Z,8.28
2022-12-28T09:37:07.104Z,8.39
2022-12-28T09:38:07.064Z,8.41
2022-12-28T09:39:07.129Z,8.39
2022-12-28T09:40:07.039Z,8.42
2022-12-28T09:41:07.072Z,8.49
2022-12-28T09:42:07.070Z,8.39
2022-12-28T09:43:07.044Z,8.42
2022-12-28T09:44:07.039Z,8.46
2022-12-28T09:45:07.031Z,8.38
2022-12-28T09:46:07.070Z,8.46
2022-12-28T09:47:07.045Z,8.57
2022-12-28T09:48:07.022Z,8.46
2022-12-28T09:49:06.972Z,8.56
2022-12-28T09:50:06.967Z,8.57
2022-12-28T09:51:07.078Z,8.60
2022-12-28T09:52:06.971Z,8.67
2022-12-28T09:53:07.092Z,8.63
2022-12-28T09:54:06.953Z,8.60
2022-12-28T09:55:06.973Z,8.70
2022-12-28T09:56:06.954Z,8.68
2022-12-28T09:57:07.083Z,8.68
2022-12-28T09:58:06.940Z,8.72
2022-12-28T09:59:06.954Z,8.74
2022-12-28T10:00:06.940Z,8.83
2022-12-28T10:01:06.922Z,8.70
2022-12-28T10:02:07.122Z,8.70
2022-12-28T10:03:06.956Z,8.71
2022-12-28T10:04:06.910Z,8.67
2022-12-28T10:05:06.917Z,8.68
2022-12-28T10:06:06.893Z,8.70
2022-12-28T10:07:06.897Z,8.71
2022-12-28T10:08:06.914Z,8.71
2022-12-28T10:09:06.862Z,8.71
2022-12-28T10:10:06.863Z,8.74
2022-12-28T10:11:06.871Z,8.85
2022-12-28T10:12:07.833Z,8.98
2022-12-28T10:13:16.564Z,8.92
2022-12-28T10:14:08.851Z,9.08
2022-12-28T10:15:06.867Z,9.22
2022-12-28T10:16:06.855Z,9.12
2022-12-28T10:17:06.793Z,9.22
2022-12-28T10:18:06.810Z,9.06
2022-12-28T10:19:06.867Z,9.12
2022-12-28T10:20:06.795Z,9.03
2022-12-28T10:21:06.810Z,9.15
2022-12-28T10:22:06.809Z,9.16
2022-12-28T10:23:06.795Z,9.23
2022-12-28T10:24:35.138Z,9.15
2022-12-28T10:25:08.748Z,9.12
2022-12-28T10:26:06.771Z,9.16
2022-12-28T10:27:06.761Z,9.18
2022-12-28T10:28:06.731Z,9.32
2022-12-28T10:29:06.744Z,9.27
2022-12-28T10:30:06.766Z,9.36
2022-12-28T10:31:06.773Z,9.41
2022-12-28T10:32:06.736Z,9.47
2022-12-28T10:33:09.760Z,9.44
2022-12-28T10:34:07.726Z,9.55
2022-12-28T10:35:06.770Z,9.42
2022-12-28T10:36:06.692Z,9.44
2022-12-28T10:37:06.694Z,9.50
2022-12-28T10:38:07.712Z,9.50
2022-12-28T10:39:06.689Z,9.40
2022-12-28T10:40:06.655Z,9.52
2022-12-28T10:41:06.684Z,9.62
2022-12-28T10:42:06.666Z,9.60
2022-12-28T10:43:10.782Z,9.88
2022-12-28T10:44:37.919Z,9.87
2022-12-28T10:45:07.639Z,9.87
2022-12-28T10:46:06.699Z,9.78
2022-12-28T10:47:06.676Z,9.73
2022-12-28T10:48:06.635Z,9.75
2022-12-28T10:49:09.824Z,9.55
2022-12-28T10:50:37.549Z,9.67
2022-12-28T10:51:08.644Z,9.70
2022-12-28T10:52:06.607Z,9.51
2022-12-28T10:53:06.617Z,9.52
2022-12-28T10:54:06.646Z,9.41
2022-12-28T10:55:08.099Z,9.32
2022-12-28T10:56:06.583Z,9.42
2022-12-28T10:57:06.562Z,9.50
2022-12-28T10:59:08.561Z,9.57
2022-12-28T11:00:06.550Z,9.57
2022-12-28T11:01:07.107Z,9.63
2022-12-28T11:02:06.733Z,9.75
2022-12-28T11:03:06.592Z,9.77
2022-12-28T11:04:06.507Z,9.78
2022-12-28T11:05:06.533Z,9.85
2022-12-28T11:06:06.506Z,10.17
2022-12-28T11:07:06.520Z,10.02
2022-12-28T11:08:06.511Z,10.12
2022-12-28T11:09:06.504Z,10.01
2022-12-28T11:10:06.518Z,9.78
2022-12-28T11:11:06.480Z,9.75
2022-12-28T11:12:06.485Z,9.63
2022-12-28T11:13:06.504Z,9.73
2022-12-28T11:14:06.482Z,9.77
2022-12-28T11:15:06.507Z,9.90
2022-12-28T11:16:06.442Z,9.75
2022-12-28T11:17:06.461Z,10.14
2022-12-28T11:18:06.468Z,10.57
2022-12-28T11:19:06.608Z,10.60
2022-12-28T11:20:06.451Z,10.80
2022-12-28T11:21:06.471Z,10.78
2022-12-28T11:22:06.400Z,10.93
2022-12-28T11:23:06.406Z,11.51
2022-12-28T11:24:06.476Z,12.03
2022-12-28T11:25:06.400Z,13.11
2022-12-28T11:26:06.451Z,13.73
2022-12-28T11:27:06.419Z,13.96
2022-12-28T11:28:06.401Z,14.55
2022-12-28T11:29:06.383Z,15.07
2022-12-28T11:30:06.425Z,14.82
2022-12-28T11:31:06.444Z,14.18
2022-12-28T11:32:06.347Z,14.04
2022-12-28T11:33:06.360Z,13.79
2022-12-28T11:34:06.389Z,13.32
2022-12-28T11:35:06.395Z,13.21
2022-12-28T11:36:10.052Z,13.79
2022-12-28T11:37:06.337Z,14.26
2022-12-28T11:38:06.318Z,14.33
2022-12-28T11:39:06.319Z,14.34
2022-12-28T11:40:06.320Z,13.78
2022-12-28T11:41:06.348Z,13.35
2022-12-28T11:43:07.322Z,12.50
2022-12-28T11:44:06.285Z,12.11
2022-12-28T11:45:06.286Z,11.76
2022-12-28T11:46:06.299Z,11.52
2022-12-28T11:47:06.257Z,11.12
2022-12-28T11:48:06.250Z,10.86
2022-12-28T11:49:06.261Z,10.65
2022-12-28T11:50:06.268Z,10.68
2022-12-28T11:51:06.268Z,10.54
2022-12-28T11:52:06.298Z,10.24
2022-12-28T11:53:12.155Z,10.12
2022-12-28T11:54:06.231Z,10.05
2022-12-28T11:55:06.216Z,10.02
2022-12-28T11:56:06.229Z,10.10
2022-12-28T11:57:06.304Z,10.08
2022-12-28T11:58:06.233Z,10.16
2022-12-28T11:59:07.203Z,10.12
2022-12-28T12:00:06.194Z,10.20
2022-12-28T12:01:06.171Z,10.20
2022-12-28T12:02:06.182Z,10.21
2022-12-28T12:03:06.259Z,10.09
2022-12-28T12:04:06.160Z,10.14
2022-12-28T12:05:06.185Z,10.14
2022-12-28T12:06:06.144Z,10.14
2022-12-28T12:07:06.180Z,10.14
2022-12-28T12:08:06.184Z,10.06
2022-12-28T12:09:06.122Z,10.10
2022-12-28T12:10:06.137Z,10.17
2022-12-28T12:11:06.097Z,10.20
2022-12-28T12:12:06.124Z,10.12
2022-12-28T12:13:06.098Z,10.01
2022-12-28T12:14:06.228Z,10.09
2022-12-28T12:15:06.111Z,10.18
2022-12-28T12:16:06.103Z,10.17
2022-12-28T12:17:06.222Z,10.28
2022-12-28T12:18:06.070Z,10.17
2022-12-28T12:19:06.210Z,10.18
2022-12-28T12:20:06.064Z,10.35
2022-12-28T12:21:10.237Z,10.45
2022-12-28T12:22:08.016Z,10.54
2022-12-28T12:23:06.069Z,10.55
2022-12-28T12:24:06.053Z,10.58
2022-12-28T12:25:06.155Z,10.70
2022-12-28T12:26:06.048Z,10.72
2022-12-28T12:27:11.891Z,10.79
2022-12-28T12:28:08.016Z,10.78
2022-12-28T12:29:06.019Z,10.61
2022-12-28T12:30:05.995Z,10.65
2022-12-28T12:31:06.052Z,10.72
2022-12-28T12:32:06.005Z,10.75
2022-12-28T12:33:05.981Z,10.76
2022-12-28T12:34:05.993Z,10.67
2022-12-28T12:35:05.994Z,10.45
2022-12-28T12:36:06.063Z,10.55
2022-12-28T12:37:06.020Z,10.46
2022-12-28T12:38:05.946Z,10.52
2022-12-28T12:39:05.942Z,10.38
2022-12-28T12:40:05.914Z,10.43
2022-12-28T12:41:05.946Z,10.39
2022-12-28T12:42:05.957Z,10.46
2022-12-28T12:43:05.917Z,10.31
2022-12-28T12:44:05.906Z,10.31
2022-12-28T12:45:05.920Z,10.10
2022-12-28T12:46:05.921Z,10.03
2022-12-28T12:47:06.369Z,10.01
2022-12-28T12:48:06.877Z,10.17
2022-12-28T12:49:05.868Z,10.17
2022-12-28T12:50:05.924Z,10.20
2022-12-28T12:51:05.870Z,10.06
2022-12-28T12:52:05.876Z,10.09
2022-12-28T12:53:05.891Z,9.98
2022-12-28T12:54:05.851Z,9.94
2022-12-28T12:55:05.845Z,10.01
2022-12-28T12:56:05.842Z,10.01
2022-12-28T12:57:05.908Z,9.87
2022-12-28T12:58:05.852Z,10.06
2022-12-28T12:59:05.826Z,10.03
2022-12-28T13:00:05.823Z,10.06
2022-12-28T13:01:06.939Z,9.93
2022-12-28T13:02:06.012Z,9.81
2022-12-28T13:03:05.863Z,9.90
2022-12-28T13:04:05.779Z,9.87
2022-12-28T13:05:05.756Z,9.88
2022-12-28T13:06:05.792Z,9.85
2022-12-28T13:07:05.814Z,9.78
2022-12-28T13:08:05.807Z,9.77
2022-12-28T13:09:06.208Z,9.67
2022-12-28T13:10:05.785Z,9.77
2022-12-28T13:11:05.772Z,9.84
2022-12-28T13:12:05.794Z,9.67
2022-12-28T13:13:05.737Z,9.50
2022-12-28T13:14:05.752Z,9.52
2022-12-28T13:15:10.833Z,9.60
2022-12-28T13:16:07.775Z,9.59
2022-12-28T13:17:05.693Z,9.57
2022-12-28T13:18:42.890Z,9.69